sensor_id;sensor_type;location;lat;lon;timestamp;P1;P2;P0
68713;PMS7003;55690;51.566;19.198;2024-02-15T00:00:05;26;19;12
68713;PMS7003;55690;51.566;19.198;2024-02-15T00:04:13;21;12;9
68713;PMS7003;55690;51.566;19.198;2024-02-15T00:08:17;24;17;8
68713;PMS7003;55690;51.566;19.198;2024-02-15T00:12:23;12;7;6
68713;PMS7003;55690;51.566;19.198;2024-02-15T00:16:30;15;11;9
68713;PMS7003;55690;51.566;19.198;2024-02-15T00:20:36;18;11;10
68713;PMS7003;55690;51.566;19.198;2024-02-15T00:24:42;18;12;11
68713;PMS7003;55690;51.566;19.198;2024-02-15T00:28:49;14;11;8
68713;PMS7003;55690;51.566;19.198;2024-02-15T00:32:54;11;8;7
68713;PMS7003;55690;51.566;19.198;2024-02-15T00:37:01;15;11;9
68713;PMS7003;55690;51.566;19.198;2024-02-15T00:41:07;17;9;8
68713;PMS7003;55690;51.566;19.198;2024-02-15T00:45:13;9;9;7
68713;PMS7003;55690;51.566;19.198;2024-02-15T00:49:19;13;8;7
68713;PMS7003;55690;51.566;19.198;2024-02-15T00:53:25;18;8;6
68713;PMS7003;55690;51.566;19.198;2024-02-15T00:57:31;12;10;8
68713;PMS7003;55690;51.566;19.198;2024-02-15T01:01:38;19;16;13
68713;PMS7003;55690;51.566;19.198;2024-02-15T01:05:44;12;9;6
68713;PMS7003;55690;51.566;19.198;2024-02-15T01:09:50;21;15;9
68713;PMS7003;55690;51.566;19.198;2024-02-15T01:13:56;17;10;7
68713;PMS7003;55690;51.566;19.198;2024-02-15T01:18:03;15;13;11
68713;PMS7003;55690;51.566;19.198;2024-02-15T01:22:08;17;12;10
68713;PMS7003;55690;51.566;19.198;2024-02-15T01:26:15;21;13;11
68713;PMS7003;55690;51.566;19.198;2024-02-15T01:30:21;18;10;9
68713;PMS7003;55690;51.566;19.198;2024-02-15T01:34:27;23;14;10
68713;PMS7003;55690;51.566;19.198;2024-02-15T01:38:33;19;14;9
68713;PMS7003;55690;51.566;19.198;2024-02-15T01:42:39;18;17;13
68713;PMS7003;55690;51.566;19.198;2024-02-15T01:46:46;17;9;8
68713;PMS7003;55690;51.566;19.198;2024-02-15T01:50:52;15;6;4
68713;PMS7003;55690;51.566;19.198;2024-02-15T01:54:58;22;16;12
68713;PMS7003;55690;51.566;19.198;2024-02-15T01:59:08;11;6;5
68713;PMS7003;55690;51.566;19.198;2024-02-15T02:03:14;23;16;11
68713;PMS7003;55690;51.566;19.198;2024-02-15T02:07:16;25;22;16
68713;PMS7003;55690;51.566;19.198;2024-02-15T02:11:23;26;21;15
68713;PMS7003;55690;51.566;19.198;2024-02-15T02:15:29;11;11;8
68713;PMS7003;55690;51.566;19.198;2024-02-15T02:19:35;22;16;9
68713;PMS7003;55690;51.566;19.198;2024-02-15T02:23:41;15;8;7
68713;PMS7003;55690;51.566;19.198;2024-02-15T02:27:47;23;14;8
68713;PMS7003;55690;51.566;19.198;2024-02-15T02:31:54;12;11;8
68713;PMS7003;55690;51.566;19.198;2024-02-15T02:36:00;26;20;13
68713;PMS7003;55690;51.566;19.198;2024-02-15T02:40:06;19;12;8
68713;PMS7003;55690;51.566;19.198;2024-02-15T02:44:12;17;13;10
68713;PMS7003;55690;51.566;19.198;2024-02-15T02:48:18;17;17;12
68713;PMS7003;55690;51.566;19.198;2024-02-15T02:52:24;13;12;7
68713;PMS7003;55690;51.566;19.198;2024-02-15T02:56:31;15;14;11
68713;PMS7003;55690;51.566;19.198;2024-02-15T03:00:37;20;15;11
68713;PMS7003;55690;51.566;19.198;2024-02-15T03:04:43;17;10;8
68713;PMS7003;55690;51.566;19.198;2024-02-15T03:08:49;27;14;9
68713;PMS7003;55690;51.566;19.198;2024-02-15T03:12:55;13;11;6
68713;PMS7003;55690;51.566;19.198;2024-02-15T03:17:01;15;14;10
68713;PMS7003;55690;51.566;19.198;2024-02-15T03:21:08;14;6;5
68713;PMS7003;55690;51.566;19.198;2024-02-15T03:25:14;13;12;9
68713;PMS7003;55690;51.566;19.198;2024-02-15T03:29:20;24;14;10
68713;PMS7003;55690;51.566;19.198;2024-02-15T03:33:27;25;16;12
68713;PMS7003;55690;51.566;19.198;2024-02-15T03:37:35;17;13;10
68713;PMS7003;55690;51.566;19.198;2024-02-15T03:41:40;12;10;7
68713;PMS7003;55690;51.566;19.198;2024-02-15T03:45:45;14;14;10
68713;PMS7003;55690;51.566;19.198;2024-02-15T03:49:51;14;14;10
68713;PMS7003;55690;51.566;19.198;2024-02-15T03:53:57;29;22;17
68713;PMS7003;55690;51.566;19.198;2024-02-15T03:58:03;14;12;10
68713;PMS7003;55690;51.566;19.198;2024-02-15T04:02:09;14;8;5
68713;PMS7003;55690;51.566;19.198;2024-02-15T04:06:16;17;14;11
68713;PMS7003;55690;51.566;19.198;2024-02-15T04:10:22;10;10;8
68713;PMS7003;55690;51.566;19.198;2024-02-15T04:14:28;11;10;7
68713;PMS7003;55690;51.566;19.198;2024-02-15T04:18:34;29;15;12
68713;PMS7003;55690;51.566;19.198;2024-02-15T04:22:40;27;23;16
68713;PMS7003;55690;51.566;19.198;2024-02-15T04:26:47;17;16;8
68713;PMS7003;55690;51.566;19.198;2024-02-15T04:30:53;18;11;9
68713;PMS7003;55690;51.566;19.198;2024-02-15T04:35:00;29;22;14
68713;PMS7003;55690;51.566;19.198;2024-02-15T04:39:05;25;18;11
68713;PMS7003;55690;51.566;19.198;2024-02-15T04:43:11;15;11;9
68713;PMS7003;55690;51.566;19.198;2024-02-15T04:47:17;15;9;7
68713;PMS7003;55690;51.566;19.198;2024-02-15T04:51:24;10;7;5
68713;PMS7003;55690;51.566;19.198;2024-02-15T04:55:30;33;26;19
68713;PMS7003;55690;51.566;19.198;2024-02-15T04:59:36;32;28;19
68713;PMS7003;55690;51.566;19.198;2024-02-15T05:03:42;13;11;8
68713;PMS7003;55690;51.566;19.198;2024-02-15T05:07:48;11;8;6
68713;PMS7003;55690;51.566;19.198;2024-02-15T05:11:54;16;15;10
68713;PMS7003;55690;51.566;19.198;2024-02-15T05:16:01;49;24;18
68713;PMS7003;55690;51.566;19.198;2024-02-15T05:20:10;14;9;6
68713;PMS7003;55690;51.566;19.198;2024-02-15T05:24:14;22;19;13
68713;PMS7003;55690;51.566;19.198;2024-02-15T05:28:19;18;13;9
68713;PMS7003;55690;51.566;19.198;2024-02-15T05:32:27;14;9;6
68713;PMS7003;55690;51.566;19.198;2024-02-15T05:36:32;14;14;11
68713;PMS7003;55690;51.566;19.198;2024-02-15T05:40:38;14;12;8
68713;PMS7003;55690;51.566;19.198;2024-02-15T05:44:44;13;10;6
68713;PMS7003;55690;51.566;19.198;2024-02-15T05:48:50;17;13;10
68713;PMS7003;55690;51.566;19.198;2024-02-15T05:52:56;21;13;9
68713;PMS7003;55690;51.566;19.198;2024-02-15T05:57:02;21;15;13
68713;PMS7003;55690;51.566;19.198;2024-02-15T06:01:09;22;22;17
68713;PMS7003;55690;51.566;19.198;2024-02-15T06:05:15;26;13;10
68713;PMS7003;55690;51.566;19.198;2024-02-15T06:09:21;17;14;10
68713;PMS7003;55690;51.566;19.198;2024-02-15T06:13:28;22;20;13
68713;PMS7003;55690;51.566;19.198;2024-02-15T06:17:33;12;10;5
68713;PMS7003;55690;51.566;19.198;2024-02-15T06:21:39;24;15;11
68713;PMS7003;55690;51.566;19.198;2024-02-15T06:25:46;14;9;7
68713;PMS7003;55690;51.566;19.198;2024-02-15T06:29:52;9;9;6
68713;PMS7003;55690;51.566;19.198;2024-02-15T06:34:05;17;13;9
68713;PMS7003;55690;51.566;19.198;2024-02-15T06:38:19;15;12;8
68713;PMS7003;55690;51.566;19.198;2024-02-15T06:42:32;39;24;18
68713;PMS7003;55690;51.566;19.198;2024-02-15T06:46:34;19;14;9
68713;PMS7003;55690;51.566;19.198;2024-02-15T06:50:36;28;16;11
68713;PMS7003;55690;51.566;19.198;2024-02-15T06:54:41;29;14;11
68713;PMS7003;55690;51.566;19.198;2024-02-15T06:58:43;18;12;9
68713;PMS7003;55690;51.566;19.198;2024-02-15T07:02:45;15;11;7
68713;PMS7003;55690;51.566;19.198;2024-02-15T07:06:48;16;15;12
68713;PMS7003;55690;51.566;19.198;2024-02-15T07:10:54;16;10;7
68713;PMS7003;55690;51.566;19.198;2024-02-15T07:15:00;10;9;8
68713;PMS7003;55690;51.566;19.198;2024-02-15T07:19:06;16;16;11
68713;PMS7003;55690;51.566;19.198;2024-02-15T07:23:13;23;18;15
68713;PMS7003;55690;51.566;19.198;2024-02-15T07:27:19;17;10;1
68713;PMS7003;55690;51.566;19.198;2024-02-15T07:31:29;15;13;10
68713;PMS7003;55690;51.566;19.198;2024-02-15T07:35:31;19;13;9
68713;PMS7003;55690;51.566;19.198;2024-02-15T07:39:38;39;25;18
68713;PMS7003;55690;51.566;19.198;2024-02-15T07:43:43;21;19;13
68713;PMS7003;55690;51.566;19.198;2024-02-15T07:47:50;17;16;8
68713;PMS7003;55690;51.566;19.198;2024-02-15T07:51:56;16;12;7
68713;PMS7003;55690;51.566;19.198;2024-02-15T07:56:02;14;14;10
68713;PMS7003;55690;51.566;19.198;2024-02-15T08:00:08;14;11;7
68713;PMS7003;55690;51.566;19.198;2024-02-15T08:04:14;20;18;12
68713;PMS7003;55690;51.566;19.198;2024-02-15T08:08:20;16;13;10
68713;PMS7003;55690;51.566;19.198;2024-02-15T08:12:27;24;14;10
68713;PMS7003;55690;51.566;19.198;2024-02-15T08:16:33;18;13;11
68713;PMS7003;55690;51.566;19.198;2024-02-15T08:20:39;17;15;11
68713;PMS7003;55690;51.566;19.198;2024-02-15T08:24:45;26;21;13
68713;PMS7003;55690;51.566;19.198;2024-02-15T08:28:51;21;20;14
68713;PMS7003;55690;51.566;19.198;2024-02-15T08:32:58;21;16;14
68713;PMS7003;55690;51.566;19.198;2024-02-15T08:37:04;39;29;17
68713;PMS7003;55690;51.566;19.198;2024-02-15T08:41:11;18;17;13
68713;PMS7003;55690;51.566;19.198;2024-02-15T08:45:16;19;13;9
68713;PMS7003;55690;51.566;19.198;2024-02-15T08:49:22;24;13;11
68713;PMS7003;55690;51.566;19.198;2024-02-15T08:53:28;33;19;16
68713;PMS7003;55690;51.566;19.198;2024-02-15T08:57:35;27;20;12
68713;PMS7003;55690;51.566;19.198;2024-02-15T09:01:41;25;14;12
68713;PMS7003;55690;51.566;19.198;2024-02-15T09:05:47;14;12;9
68713;PMS7003;55690;51.566;19.198;2024-02-15T09:09:53;21;18;15
68713;PMS7003;55690;51.566;19.198;2024-02-15T09:13:59;27;18;13
68713;PMS7003;55690;51.566;19.198;2024-02-15T09:18:05;25;12;10
68713;PMS7003;55690;51.566;19.198;2024-02-15T09:22:12;17;10;5
68713;PMS7003;55690;51.566;19.198;2024-02-15T09:26:18;21;15;10
68713;PMS7003;55690;51.566;19.198;2024-02-15T09:30:24;20;16;12
68713;PMS7003;55690;51.566;19.198;2024-02-15T09:34:30;20;11;10
68713;PMS7003;55690;51.566;19.198;2024-02-15T09:38:36;21;14;11
68713;PMS7003;55690;51.566;19.198;2024-02-15T09:42:43;14;14;11
68713;PMS7003;55690;51.566;19.198;2024-02-15T09:46:49;12;12;9
68713;PMS7003;55690;51.566;19.198;2024-02-15T09:51:00;8;8;6
68713;PMS7003;55690;51.566;19.198;2024-02-15T09:55:03;24;15;11
68713;PMS7003;55690;51.566;19.198;2024-02-15T09:59:07;11;11;9
68713;PMS7003;55690;51.566;19.198;2024-02-15T10:03:13;14;8;6
68713;PMS7003;55690;51.566;19.198;2024-02-15T10:07:24;13;8;5
68713;PMS7003;55690;51.566;19.198;2024-02-15T10:11:27;14;6;3
68713;PMS7003;55690;51.566;19.198;2024-02-15T10:15:33;7;5;3
68713;PMS7003;55690;51.566;19.198;2024-02-15T10:23:31;3;3;3
68713;PMS7003;55690;51.566;19.198;2024-02-15T10:27:38;8;5;5
68713;PMS7003;55690;51.566;19.198;2024-02-15T10:40:10;13;6;6
68713;PMS7003;55690;51.566;19.198;2024-02-15T10:44:18;9;4;3
68713;PMS7003;55690;51.566;19.198;2024-02-15T10:48:21;2;2;1
68713;PMS7003;55690;51.566;19.198;2024-02-15T10:52:23;3;3;2
68713;PMS7003;55690;51.566;19.198;2024-02-15T10:56:36;13;6;4
68713;PMS7003;55690;51.566;19.198;2024-02-15T11:00:44;10;4;3
68713;PMS7003;55690;51.566;19.198;2024-02-15T11:04:50;5;4;3
68713;PMS7003;55690;51.566;19.198;2024-02-15T11:08:57;3;3;2
68713;PMS7003;55690;51.566;19.198;2024-02-15T11:13:01;3;3;2
68713;PMS7003;55690;51.566;19.198;2024-02-15T11:17:03;3;3;3
68713;PMS7003;55690;51.566;19.198;2024-02-15T11:21:07;9;3;2
68713;PMS7003;55690;51.566;19.198;2024-02-15T11:25:09;9;7;6
68713;PMS7003;55690;51.566;19.198;2024-02-15T11:29:47;4;2;2
68713;PMS7003;55690;51.566;19.198;2024-02-15T11:41:50;6;6;4
68713;PMS7003;55690;51.566;19.198;2024-02-15T11:45:58;5;5;4
68713;PMS7003;55690;51.566;19.198;2024-02-15T11:50:03;3;3;2
68713;PMS7003;55690;51.566;19.198;2024-02-15T11:54:15;6;2;2
68713;PMS7003;55690;51.566;19.198;2024-02-15T11:58:21;4;3;3
68713;PMS7003;55690;51.566;19.198;2024-02-15T12:02:35;7;0;0
68713;PMS7003;55690;51.566;19.198;2024-02-15T12:06:49;4;4;3
68713;PMS7003;55690;51.566;19.198;2024-02-15T12:11:04;5;5;4
68713;PMS7003;55690;51.566;19.198;2024-02-15T12:15:17;5;5;4
68713;PMS7003;55690;51.566;19.198;2024-02-15T12:19:31;11;6;5
68713;PMS7003;55690;51.566;19.198;2024-02-15T12:23:32;6;3;2
68713;PMS7003;55690;51.566;19.198;2024-02-15T12:27:36;2;2;2
68713;PMS7003;55690;51.566;19.198;2024-02-15T12:31:39;5;4;3
68713;PMS7003;55690;51.566;19.198;2024-02-15T12:35:41;6;4;2
68713;PMS7003;55690;51.566;19.198;2024-02-15T12:39:43;3;3;3
68713;PMS7003;55690;51.566;19.198;2024-02-15T12:43:44;3;3;3
68713;PMS7003;55690;51.566;19.198;2024-02-15T12:47:48;3;3;3
68713;PMS7003;55690;51.566;19.198;2024-02-15T12:51:52;4;2;1
68713;PMS7003;55690;51.566;19.198;2024-02-15T12:55:57;8;0;0
68713;PMS7003;55690;51.566;19.198;2024-02-15T13:00:00;6;5;3
68713;PMS7003;55690;51.566;19.198;2024-02-15T13:04:01;4;4;3
68713;PMS7003;55690;51.566;19.198;2024-02-15T13:08:03;2;2;2
68713;PMS7003;55690;51.566;19.198;2024-02-15T13:12:17;7;6;6
68713;PMS7003;55690;51.566;19.198;2024-02-15T13:16:20;4;4;3
68713;PMS7003;55690;51.566;19.198;2024-02-15T13:20:24;10;5;3
68713;PMS7003;55690;51.566;19.198;2024-02-15T13:24:34;8;4;4
68713;PMS7003;55690;51.566;19.198;2024-02-15T13:28:39;7;3;2
68713;PMS7003;55690;51.566;19.198;2024-02-15T13:32:44;3;3;2
68713;PMS7003;55690;51.566;19.198;2024-02-15T13:36:46;1;1;1
68713;PMS7003;55690;51.566;19.198;2024-02-15T13:40:48;10;2;1
68713;PMS7003;55690;51.566;19.198;2024-02-15T13:44:57;8;5;4
68713;PMS7003;55690;51.566;19.198;2024-02-15T13:48:59;2;2;2
68713;PMS7003;55690;51.566;19.198;2024-02-15T13:53:03;5;2;2
68713;PMS7003;55690;51.566;19.198;2024-02-15T13:57:05;10;7;5
68713;PMS7003;55690;51.566;19.198;2024-02-15T14:01:08;2;2;2
68713;PMS7003;55690;51.566;19.198;2024-02-15T14:05:15;6;6;5
68713;PMS7003;55690;51.566;19.198;2024-02-15T14:09:20;3;3;2
68713;PMS7003;55690;51.566;19.198;2024-02-15T14:13:26;7;4;4
68713;PMS7003;55690;51.566;19.198;2024-02-15T14:17:31;3;3;3
68713;PMS7003;55690;51.566;19.198;2024-02-15T14:21:33;4;2;1
68713;PMS7003;55690;51.566;19.198;2024-02-15T14:25:41;2;2;2
68713;PMS7003;55690;51.566;19.198;2024-02-15T14:29:43;3;3;2
68713;PMS7003;55690;51.566;19.198;2024-02-15T14:33:58;3;3;1
68713;PMS7003;55690;51.566;19.198;2024-02-15T14:38:04;7;2;1
68713;PMS7003;55690;51.566;19.198;2024-02-15T14:42:11;6;6;5
68713;PMS7003;55690;51.566;19.198;2024-02-15T14:46:14;5;5;4
68713;PMS7003;55690;51.566;19.198;2024-02-15T14:50:17;14;9;8
68713;PMS7003;55690;51.566;19.198;2024-02-15T14:54:21;12;5;4
68713;PMS7003;55690;51.566;19.198;2024-02-15T14:58:25;5;3;3
68713;PMS7003;55690;51.566;19.198;2024-02-15T15:02:31;14;14;12
68713;PMS7003;55690;51.566;19.198;2024-02-15T15:06:38;18;16;12
68713;PMS7003;55690;51.566;19.198;2024-02-15T15:10:51;8;5;3
68713;PMS7003;55690;51.566;19.198;2024-02-15T15:15:05;6;5;4
68713;PMS7003;55690;51.566;19.198;2024-02-15T15:19:08;9;6;5
68713;PMS7003;55690;51.566;19.198;2024-02-15T15:23:11;12;8;7
68713;PMS7003;55690;51.566;19.198;2024-02-15T15:27:13;7;7;5
68713;PMS7003;55690;51.566;19.198;2024-02-15T15:31:15;4;4;4
68713;PMS7003;55690;51.566;19.198;2024-02-15T15:35:20;4;4;4
68713;PMS7003;55690;51.566;19.198;2024-02-15T15:39:26;3;2;1
68713;PMS7003;55690;51.566;19.198;2024-02-15T15:43:33;11;8;7
68713;PMS7003;55690;51.566;19.198;2024-02-15T15:47:39;9;2;2
68713;PMS7003;55690;51.566;19.198;2024-02-15T15:51:45;2;1;1
68713;PMS7003;55690;51.566;19.198;2024-02-15T15:55:51;5;2;1
68713;PMS7003;55690;51.566;19.198;2024-02-15T15:59:57;9;4;3
68713;PMS7003;55690;51.566;19.198;2024-02-15T16:04:03;7;6;4
68713;PMS7003;55690;51.566;19.198;2024-02-15T16:08:09;8;5;4
68713;PMS7003;55690;51.566;19.198;2024-02-15T16:12:16;3;3;1
68713;PMS7003;55690;51.566;19.198;2024-02-15T16:16:22;5;5;3
68713;PMS7003;55690;51.566;19.198;2024-02-15T16:20:28;12;5;3
68713;PMS7003;55690;51.566;19.198;2024-02-15T16:24:34;5;4;3
68713;PMS7003;55690;51.566;19.198;2024-02-15T16:28:40;8;5;4
68713;PMS7003;55690;51.566;19.198;2024-02-15T16:32:46;7;7;6
68713;PMS7003;55690;51.566;19.198;2024-02-15T16:36:53;4;4;3
68713;PMS7003;55690;51.566;19.198;2024-02-15T16:40:59;6;6;5
68713;PMS7003;55690;51.566;19.198;2024-02-15T16:45:05;5;5;3
68713;PMS7003;55690;51.566;19.198;2024-02-15T16:49:11;7;5;3
68713;PMS7003;55690;51.566;19.198;2024-02-15T16:53:18;10;6;4
68713;PMS7003;55690;51.566;19.198;2024-02-15T16:57:23;4;4;4
68713;PMS7003;55690;51.566;19.198;2024-02-15T17:01:30;7;7;6
68713;PMS7003;55690;51.566;19.198;2024-02-15T17:05:36;4;4;3
68713;PMS7003;55690;51.566;19.198;2024-02-15T17:09:42;18;8;6
68713;PMS7003;55690;51.566;19.198;2024-02-15T17:13:48;13;13;11
68713;PMS7003;55690;51.566;19.198;2024-02-15T17:17:54;15;10;8
68713;PMS7003;55690;51.566;19.198;2024-02-15T17:22:00;15;11;10
68713;PMS7003;55690;51.566;19.198;2024-02-15T17:26:07;19;9;8
68713;PMS7003;55690;51.566;19.198;2024-02-15T17:30:13;6;6;5
68713;PMS7003;55690;51.566;19.198;2024-02-15T17:34:19;9;6;6
68713;PMS7003;55690;51.566;19.198;2024-02-15T17:38:25;5;5;4
68713;PMS7003;55690;51.566;19.198;2024-02-15T17:42:31;12;9;7
68713;PMS7003;55690;51.566;19.198;2024-02-15T17:46:38;13;12;9
68713;PMS7003;55690;51.566;19.198;2024-02-15T17:50:44;18;10;7
68713;PMS7003;55690;51.566;19.198;2024-02-15T17:54:50;12;10;8
68713;PMS7003;55690;51.566;19.198;2024-02-15T17:58:56;6;5;3
68713;PMS7003;55690;51.566;19.198;2024-02-15T18:03:02;12;6;5
68713;PMS7003;55690;51.566;19.198;2024-02-15T18:07:08;9;4;3
68713;PMS7003;55690;51.566;19.198;2024-02-15T18:11:15;17;9;8
68713;PMS7003;55690;51.566;19.198;2024-02-15T18:15:21;19;18;16
68713;PMS7003;55690;51.566;19.198;2024-02-15T18:19:34;11;8;7
68713;PMS7003;55690;51.566;19.198;2024-02-15T18:23:36;7;7;5
68713;PMS7003;55690;51.566;19.198;2024-02-15T18:27:41;3;1;1
68713;PMS7003;55690;51.566;19.198;2024-02-15T18:31:45;8;6;3
68713;PMS7003;55690;51.566;19.198;2024-02-15T18:35:52;11;10;6
68713;PMS7003;55690;51.566;19.198;2024-02-15T18:39:58;11;4;3
68713;PMS7003;55690;51.566;19.198;2024-02-15T18:44:04;8;8;7
68713;PMS7003;55690;51.566;19.198;2024-02-15T18:48:10;8;8;7
68713;PMS7003;55690;51.566;19.198;2024-02-15T18:52:16;8;7;6
68713;PMS7003;55690;51.566;19.198;2024-02-15T18:56:23;14;13;11
68713;PMS7003;55690;51.566;19.198;2024-02-15T19:00:29;16;16;12
68713;PMS7003;55690;51.566;19.198;2024-02-15T19:04:35;16;12;10
68713;PMS7003;55690;51.566;19.198;2024-02-15T19:08:41;16;12;8
68713;PMS7003;55690;51.566;19.198;2024-02-15T19:12:50;8;8;6
68713;PMS7003;55690;51.566;19.198;2024-02-15T19:16:54;9;7;6
68713;PMS7003;55690;51.566;19.198;2024-02-15T19:20:59;16;14;11
68713;PMS7003;55690;51.566;19.198;2024-02-15T19:25:06;0;0;0
68713;PMS7003;55690;51.566;19.198;2024-02-15T19:29:12;7;7;6
68713;PMS7003;55690;51.566;19.198;2024-02-15T19:33:18;5;5;5
68713;PMS7003;55690;51.566;19.198;2024-02-15T19:37:24;12;4;4
68713;PMS7003;55690;51.566;19.198;2024-02-15T19:41:33;36;28;18
68713;PMS7003;55690;51.566;19.198;2024-02-15T19:45:36;22;12;10
68713;PMS7003;55690;51.566;19.198;2024-02-15T19:49:43;18;9;6
68713;PMS7003;55690;51.566;19.198;2024-02-15T19:53:49;12;8;7
68713;PMS7003;55690;51.566;19.198;2024-02-15T19:57:55;20;16;12
68713;PMS7003;55690;51.566;19.198;2024-02-15T20:02:01;14;10;7
68713;PMS7003;55690;51.566;19.198;2024-02-15T20:06:07;19;13;8
68713;PMS7003;55690;51.566;19.198;2024-02-15T20:10:14;16;16;13
68713;PMS7003;55690;51.566;19.198;2024-02-15T20:14:20;4;4;4
68713;PMS7003;55690;51.566;19.198;2024-02-15T20:18:26;16;11;6
68713;PMS7003;55690;51.566;19.198;2024-02-15T20:22:32;34;31;22
68713;PMS7003;55690;51.566;19.198;2024-02-15T20:26:38;52;41;29
68713;PMS7003;55690;51.566;19.198;2024-02-15T20:30:44;39;28;21
68713;PMS7003;55690;51.566;19.198;2024-02-15T20:34:51;24;20;15
68713;PMS7003;55690;51.566;19.198;2024-02-15T20:38:57;15;14;11
68713;PMS7003;55690;51.566;19.198;2024-02-15T20:43:03;7;3;1
68713;PMS7003;55690;51.566;19.198;2024-02-15T20:47:09;39;33;26
68713;PMS7003;55690;51.566;19.198;2024-02-15T20:51:15;27;18;14
68713;PMS7003;55690;51.566;19.198;2024-02-15T20:55:21;21;18;10
68713;PMS7003;55690;51.566;19.198;2024-02-15T20:59:28;12;10;8
68713;PMS7003;55690;51.566;19.198;2024-02-15T21:03:34;17;13;11
68713;PMS7003;55690;51.566;19.198;2024-02-15T21:07:40;14;13;10
68713;PMS7003;55690;51.566;19.198;2024-02-15T21:11:46;23;22;17
68713;PMS7003;55690;51.566;19.198;2024-02-15T21:15:52;30;28;17
68713;PMS7003;55690;51.566;19.198;2024-02-15T21:19:58;22;12;10
68713;PMS7003;55690;51.566;19.198;2024-02-15T21:24:05;34;19;13
68713;PMS7003;55690;51.566;19.198;2024-02-15T21:28:11;18;15;11
68713;PMS7003;55690;51.566;19.198;2024-02-15T21:32:17;16;11;8
68713;PMS7003;55690;51.566;19.198;2024-02-15T21:36:23;18;17;13
68713;PMS7003;55690;51.566;19.198;2024-02-15T21:40:29;44;21;17
68713;PMS7003;55690;51.566;19.198;2024-02-15T21:44:35;20;12;9
68713;PMS7003;55690;51.566;19.198;2024-02-15T21:48:42;12;12;8
68713;PMS7003;55690;51.566;19.198;2024-02-15T21:52:48;25;19;13
68713;PMS7003;55690;51.566;19.198;2024-02-15T21:56:54;35;17;11
68713;PMS7003;55690;51.566;19.198;2024-02-15T22:14:17;12;9;7
68713;PMS7003;55690;51.566;19.198;2024-02-15T22:18:18;27;9;6
68713;PMS7003;55690;51.566;19.198;2024-02-15T22:22:20;28;14;12
68713;PMS7003;55690;51.566;19.198;2024-02-15T22:26:22;16;13;10
68713;PMS7003;55690;51.566;19.198;2024-02-15T22:30:26;18;12;10
68713;PMS7003;55690;51.566;19.198;2024-02-15T22:34:28;23;7;6
68713;PMS7003;55690;51.566;19.198;2024-02-15T22:38:30;32;22;15
68713;PMS7003;55690;51.566;19.198;2024-02-15T22:42:31;13;12;11
68713;PMS7003;55690;51.566;19.198;2024-02-15T22:46:33;21;20;13
68713;PMS7003;55690;51.566;19.198;2024-02-15T22:50:34;24;18;13
68713;PMS7003;55690;51.566;19.198;2024-02-15T22:54:36;19;17;12
68713;PMS7003;55690;51.566;19.198;2024-02-15T22:58:45;18;11;9
68713;PMS7003;55690;51.566;19.198;2024-02-15T23:02:48;19;17;14
68713;PMS7003;55690;51.566;19.198;2024-02-15T23:06:49;18;14;13
68713;PMS7003;55690;51.566;19.198;2024-02-15T23:10:51;33;13;11
68713;PMS7003;55690;51.566;19.198;2024-02-15T23:14:53;31;20;14
68713;PMS7003;55690;51.566;19.198;2024-02-15T23:18:57;27;19;13
68713;PMS7003;55690;51.566;19.198;2024-02-15T23:23:04;28;22;12
68713;PMS7003;55690;51.566;19.198;2024-02-15T23:27:10;26;20;16
68713;PMS7003;55690;51.566;19.198;2024-02-15T23:31:16;15;12;10
68713;PMS7003;55690;51.566;19.198;2024-02-15T23:35:22;17;15;10
68713;PMS7003;55690;51.566;19.198;2024-02-15T23:39:32;22;14;10
68713;PMS7003;55690;51.566;19.198;2024-02-15T23:43:45;17;12;11
68713;PMS7003;55690;51.566;19.198;2024-02-15T23:47:47;31;24;16
68713;PMS7003;55690;51.566;19.198;2024-02-15T23:51:49;17;17;12
68713;PMS7003;55690;51.566;19.198;2024-02-15T23:55:53;20;17;14
68713;PMS7003;55690;51.566;19.198;2024-02-15T23:59:59;21;19;14
